Time;durP1;ratioP1;P1;durP2;ratioP2;P2;SDS_P1;SDS_P2;PMS_P1;PMS_P2;Temp;Humidity;BMP_temperature;BMP_pressure;BME280_temperature;BME280_humidity;BME280_pressure;Samples;Min_cycle;Max_cycle;Signal;HPM_P1;HPM_P2
2021/04/20 00:01:06;;;;;;;42.37;22.13;;;;;;;2.85;73.16;98766.11;2258718;79;21100;-78
2021/04/20 00:04:07;;;;;;;45.33;21.60;;;;;;;2.81;73.21;98766.80;2258958;79;21207;-78
2021/04/20 00:07:10;;;;;;;42.43;21.60;;;;;;;2.81;72.88;98766.39;2258986;79;21128;-79
2021/04/20 00:10:11;;;;;;;41.30;22.93;;;;;;;2.80;73.30;98769.79;2259226;79;21077;-78
2021/04/20 00:13:12;;;;;;;42.63;23.80;;;;;;;2.88;73.55;98758.09;2259313;79;21109;-78
2021/04/20 00:16:13;;;;;;;51.50;25.60;;;;;;;2.93;73.34;98753.12;2259271;79;21128;-79
2021/04/20 00:19:14;;;;;;;52.67;25.53;;;;;;;2.99;73.35;98752.08;2259076;79;21398;-78
2021/04/20 00:22:15;;;;;;;51.83;27.03;;;;;;;3.07;73.65;98746.81;2259269;79;21061;-78
2021/04/20 00:25:16;;;;;;;65.27;31.73;;;;;;;3.16;73.65;98747.17;2258525;78;21418;-79
2021/04/20 00:28:20;;;;;;;44.93;26.53;;;;;;;3.24;73.80;98741.43;2258757;79;21085;-79
2021/04/20 00:31:21;;;;;;;40.47;22.97;;;;;;;3.32;73.59;98744.78;2258222;79;21097;-80
2021/04/20 00:34:22;;;;;;;37.43;20.23;;;;;;;3.37;73.41;98743.66;2258283;79;21096;-80
2021/04/20 00:37:24;;;;;;;108.13;26.47;;;;;;;3.44;73.58;98743.08;2258522;79;21140;-80
2021/04/20 00:40:25;;;;;;;55.70;20.40;;;;;;;3.49;73.62;98742.46;2258277;79;21370;-80
2021/04/20 00:43:26;;;;;;;29.57;19.67;;;;;;;3.57;73.67;98729.84;2258360;79;21350;-79
2021/04/20 00:46:27;;;;;;;37.37;21.87;;;;;;;3.62;73.74;98729.61;2258104;79;21169;-80
2021/04/20 00:49:28;;;;;;;36.93;23.17;;;;;;;3.67;73.58;98725.91;2245350;79;21251;-79
2021/04/20 00:52:29;;;;;;;42.23;23.60;;;;;;;3.69;73.52;98715.22;2226570;80;21399;-79
2021/04/20 00:55:30;;;;;;;38.90;21.40;;;;;;;3.75;73.42;98729.23;2226613;80;21133;-79
2021/04/20 00:58:31;;;;;;;33.50;22.63;;;;;;;3.76;73.44;98732.28;2226948;80;21395;-79
2021/04/20 01:01:32;;;;;;;65.63;23.00;;;;;;;3.81;73.58;98729.87;2227214;80;21062;-79
2021/04/20 01:04:33;;;;;;;43.80;21.03;;;;;;;3.94;73.77;98718.28;2226961;80;21114;-80
2021/04/20 01:07:34;;;;;;;50.37;22.37;;;;;;;4.00;74.15;98713.33;2227419;80;21208;-79
2021/04/20 01:10:35;;;;;;;36.67;20.17;;;;;;;4.04;74.18;98715.20;2227201;80;21410;-80
2021/04/20 01:13:36;;;;;;;35.60;21.27;;;;;;;4.08;74.27;98714.06;2227105;80;21098;-80
2021/04/20 01:16:37;;;;;;;39.57;20.73;;;;;;;4.17;74.24;98713.51;2227201;80;21146;-79
2021/04/20 01:19:38;;;;;;;60.73;31.23;;;;;;;4.22;74.24;98711.97;2226677;80;21098;-80
2021/04/20 01:22:39;;;;;;;32.40;20.67;;;;;;;4.28;74.37;98716.47;2226794;80;21094;-80
2021/04/20 01:25:40;;;;;;;38.87;22.97;;;;;;;4.36;74.41;98708.18;2226696;79;21232;-80
2021/04/20 01:28:41;;;;;;;42.77;21.70;;;;;;;4.38;74.53;98707.81;2226767;80;21105;-80
2021/04/20 01:31:42;;;;;;;39.83;21.23;;;;;;;4.46;74.51;98701.61;2226919;80;21117;-80
2021/04/20 01:34:43;;;;;;;40.77;20.57;;;;;;;4.54;74.34;98704.45;2227288;80;21089;-81
2021/04/20 01:37:44;;;;;;;35.73;20.53;;;;;;;4.58;74.19;98699.84;2227256;80;21391;-81
2021/04/20 01:40:45;;;;;;;32.17;19.83;;;;;;;4.62;74.31;98701.70;2226781;80;21122;-80
2021/04/20 01:43:46;;;;;;;32.17;20.70;;;;;;;4.66;74.18;98700.98;2226708;80;21063;-80
2021/04/20 01:46:47;;;;;;;55.97;22.73;;;;;;;4.67;73.99;98702.73;2226888;80;21126;-81
2021/04/20 01:49:48;;;;;;;38.27;20.40;;;;;;;4.68;74.11;98709.66;2227207;79;21419;-81
2021/04/20 01:52:50;;;;;;;44.77;21.07;;;;;;;4.66;74.05;98702.27;2227226;80;21090;-80
2021/04/20 01:55:51;;;;;;;36.70;19.83;;;;;;;4.61;74.18;98712.46;2226927;80;21106;-80
2021/04/20 01:58:52;;;;;;;35.40;20.00;;;;;;;4.60;74.37;98710.70;2226839;80;21074;-80
2021/04/20 02:01:53;;;;;;;79.37;41.70;;;;;;;4.61;74.32;98711.58;2226612;80;21082;-80
2021/04/20 02:04:54;;;;;;;43.30;23.47;;;;;;;4.59;74.45;98706.77;2226682;80;21114;-80
2021/04/20 02:07:55;;;;;;;111.50;24.17;;;;;;;4.60;74.38;98707.23;2226915;80;21208;-80
2021/04/20 02:10:57;;;;;;;29.93;18.43;;;;;;;4.59;74.42;98710.66;2227458;80;21503;-80
2021/04/20 02:13:58;;;;;;;27.63;17.43;;;;;;;4.53;74.22;98706.16;2226869;80;21329;-79
2021/04/20 02:16:59;;;;;;;30.57;17.90;;;;;;;4.46;74.44;98705.08;2226798;80;21165;-80
2021/04/20 02:20:00;;;;;;;45.73;18.77;;;;;;;4.39;74.56;98703.53;2226721;80;21114;-80
2021/04/20 02:23:01;;;;;;;22.83;15.93;;;;;;;4.30;74.29;98710.52;2226360;80;21062;-79
2021/04/20 02:26:02;;;;;;;31.90;17.47;;;;;;;4.19;74.39;98709.27;2227122;80;21118;-79
2021/04/20 02:29:04;;;;;;;30.00;16.77;;;;;;;4.11;74.49;98714.17;2226679;80;21089;-79
2021/04/20 02:32:06;;;;;;;24.73;16.40;;;;;;;4.05;74.53;98715.66;2226891;79;21126;-80
2021/04/20 02:35:07;;;;;;;24.97;15.37;;;;;;;3.98;74.51;98711.11;2226694;80;21412;-79
2021/04/20 02:38:08;;;;;;;58.60;29.50;;;;;;;3.87;74.35;98714.59;2226870;80;21118;-78
2021/04/20 02:41:09;;;;;;;33.90;17.53;;;;;;;3.78;74.48;98715.14;2226719;80;21130;-80
2021/04/20 02:44:10;;;;;;;26.60;17.10;;;;;;;3.72;74.45;98711.05;2226468;80;21102;-79
2021/04/20 02:47:11;;;;;;;25.37;16.47;;;;;;;3.64;74.37;98715.47;2226683;80;21137;-79
2021/04/20 02:50:12;;;;;;;26.30;16.73;;;;;;;3.55;74.22;98708.27;2241347;79;21140;-79
2021/04/20 02:53:13;;;;;;;47.93;17.03;;;;;;;3.41;74.19;98710.30;2258337;79;21104;-80
2021/04/20 02:56:14;;;;;;;25.30;16.90;;;;;;;3.32;74.45;98714.23;2258731;79;21148;-80
2021/04/20 02:59:15;;;;;;;30.07;16.50;;;;;;;3.27;74.63;98710.59;2258286;79;21096;-79
2021/04/20 03:02:16;;;;;;;29.50;19.20;;;;;;;3.20;74.77;98710.36;2258190;79;21371;-79
2021/04/20 03:05:17;;;;;;;22.63;16.50;;;;;;;3.12;74.52;98712.17;2258614;79;21131;-80
2021/04/20 03:08:18;;;;;;;24.73;16.03;;;;;;;3.05;74.69;98704.61;2258557;79;21054;-80
2021/04/20 03:11:20;;;;;;;24.93;15.67;;;;;;;3.00;74.68;98707.83;2258347;79;21065;-79
2021/04/20 03:14:21;;;;;;;26.07;15.87;;;;;;;2.92;74.61;98711.80;2258251;79;21379;-79
2021/04/20 03:17:22;;;;;;;22.90;14.60;;;;;;;2.87;74.50;98712.50;2258430;79;21131;-79
2021/04/20 03:20:23;;;;;;;20.37;14.47;;;;;;;2.79;74.26;98711.73;2258454;79;21076;-79
2021/04/20 03:23:24;;;;;;;23.23;16.50;;;;;;;2.71;74.51;98715.28;2257944;79;21403;-79
2021/04/20 03:26:25;;;;;;;33.20;16.57;;;;;;;2.67;74.74;98713.81;2258026;79;21076;-79
2021/04/20 03:29:26;;;;;;;28.73;16.30;;;;;;;2.62;74.84;98712.34;2258317;79;21100;-79
2021/04/20 03:32:28;;;;;;;30.73;14.67;;;;;;;2.59;74.88;98712.59;2258732;78;21359;-80
2021/04/20 03:35:29;;;;;;;107.60;19.87;;;;;;;2.55;74.29;98706.02;2258007;79;21136;-80
2021/04/20 03:38:30;;;;;;;25.43;14.77;;;;;;;2.49;74.38;98709.63;2258197;79;21120;-79
2021/04/20 03:41:31;;;;;;;25.47;15.50;;;;;;;2.45;74.48;98715.48;2258266;79;21394;-79
2021/04/20 03:44:32;;;;;;;30.00;15.10;;;;;;;2.36;74.19;98721.53;2258396;78;21093;-80
2021/04/20 03:47:33;;;;;;;34.00;16.47;;;;;;;2.27;74.32;98717.28;2257897;79;21404;-78
2021/04/20 03:50:34;;;;;;;26.13;15.93;;;;;;;2.25;74.57;98720.20;2242222;79;21177;-78
2021/04/20 03:53:35;;;;;;;52.33;16.60;;;;;;;2.25;74.80;98713.77;2226498;80;21400;-79
2021/04/20 03:56:36;;;;;;;24.13;15.27;;;;;;;2.29;74.87;98719.92;2226479;80;21384;-78
2021/04/20 03:59:37;;;;;;;28.43;16.90;;;;;;;2.26;74.85;98719.39;2226232;80;21101;-78
2021/04/20 04:02:38;;;;;;;458.00;38.10;;;;;;;2.29;74.89;98717.35;2226373;80;21105;-77
2021/04/20 04:05:39;;;;;;;40.97;17.30;;;;;;;2.30;75.02;98719.98;2226630;80;21101;-77
2021/04/20 04:08:41;;;;;;;30.23;17.13;;;;;;;2.34;74.97;98715.44;2226428;79;21086;-78
2021/04/20 04:11:42;;;;;;;25.13;17.47;;;;;;;2.38;74.67;98722.48;2226433;79;21097;-78
2021/04/20 04:14:43;;;;;;;27.53;16.83;;;;;;;2.43;74.49;98723.55;2226804;80;21343;-78
2021/04/20 04:17:44;;;;;;;25.97;16.90;;;;;;;2.53;74.88;98720.53;2226107;80;21101;-78
2021/04/20 04:20:45;;;;;;;23.40;16.03;;;;;;;2.65;74.47;98722.77;2226272;80;21114;-79
2021/04/20 04:23:47;;;;;;;30.67;16.60;;;;;;;2.74;74.41;98722.27;2226611;80;21094;-78
2021/04/20 04:26:48;;;;;;;23.13;16.27;;;;;;;2.76;74.16;98718.92;2226341;80;21110;-78
2021/04/20 04:29:51;;;;;;;97.87;21.90;;;;;;;2.87;74.25;98727.09;2226556;80;21093;-79
2021/04/20 04:32:53;;;;;;;24.63;16.60;;;;;;;3.00;74.53;98725.88;2226579;79;21059;-78
2021/04/20 04:35:54;;;;;;;28.30;16.87;;;;;;;3.15;74.48;98721.32;2226032;80;21142;-78
2021/04/20 04:38:55;;;;;;;25.23;17.37;;;;;;;3.33;74.61;98725.90;2226171;80;21113;-79
2021/04/20 04:41:56;;;;;;;27.93;17.03;;;;;;;3.54;74.53;98722.40;2226123;80;21094;-78
2021/04/20 04:44:57;;;;;;;27.90;17.67;;;;;;;3.76;74.39;98719.38;2225307;79;21391;-77
2021/04/20 04:47:58;;;;;;;154.60;36.80;;;;;;;3.97;73.91;98717.09;2225965;80;21106;-79
2021/04/20 04:50:59;;;;;;;64.13;22.20;;;;;;;6.06;77.17;98715.63;2226098;79;21114;-78
2021/04/20 04:54:00;;;;;;;124.17;24.80;;;;;;;6.90;71.71;98707.45;2226250;80;21117;-79
2021/04/20 04:57:01;;;;;;;71.77;20.50;;;;;;;6.60;70.12;98711.05;2226513;80;21094;-79
2021/04/20 05:00:02;;;;;;;44.57;23.17;;;;;;;6.45;69.89;98718.44;2226956;80;21094;-80
2021/04/20 05:03:03;;;;;;;77.70;25.97;;;;;;;6.35;69.86;98713.43;2226437;80;21102;-77
2021/04/20 05:06:04;;;;;;;68.13;26.80;;;;;;;6.30;69.73;98708.55;2226183;80;21105;-77
2021/04/20 05:09:05;;;;;;;73.27;25.17;;;;;;;6.25;69.82;98716.62;2226864;80;21093;-79
2021/04/20 05:12:06;;;;;;;31.77;21.20;;;;;;;6.36;69.83;98716.48;2226894;79;21109;-80
2021/04/20 05:15:12;;;;;;;27.83;17.77;;;;;;;6.45;69.68;98709.78;2227055;79;21126;-80
2021/04/20 05:18:13;;;;;;;25.00;18.43;;;;;;;6.54;69.42;98718.67;2227447;80;21081;-78
2021/04/20 05:21:14;;;;;;;30.40;18.27;;;;;;;6.54;69.42;98718.67;2227463;80;21110;-80
2021/04/20 05:24:15;;;;;;;29.50;19.20;;;;;;;6.59;69.09;98721.38;2227303;80;21086;-80
2021/04/20 05:27:16;;;;;;;32.57;18.60;;;;;;;6.68;69.06;98716.42;2227209;80;21125;-80
2021/04/20 05:30:17;;;;;;;31.93;19.50;;;;;;;6.78;69.32;98721.42;2227228;79;21209;-79
2021/04/20 05:33:18;;;;;;;29.73;19.17;;;;;;;6.78;69.32;98721.42;2227377;80;21063;-80
2021/04/20 05:36:19;;;;;;;28.83;19.33;;;;;;;6.84;69.14;98721.16;2227062;80;21563;-81
2021/04/20 05:39:21;;;;;;;24.57;18.73;;;;;;;6.93;69.43;98720.08;2226948;80;21101;-81
2021/04/20 05:42:22;;;;;;;27.90;18.27;;;;;;;7.09;69.37;98716.58;2227565;80;21098;-80
2021/04/20 05:45:23;;;;;;;27.87;19.27;;;;;;;7.26;69.50;98720.45;2227130;80;21098;-77
2021/04/20 05:48:25;;;;;;;31.27;19.43;;;;;;;7.45;69.50;98717.42;2227122;80;21110;-80
2021/04/20 05:51:26;;;;;;;29.87;20.40;;;;;;;7.66;69.00;98720.48;2227151;79;21252;-78
2021/04/20 05:54:27;;;;;;;30.07;20.67;;;;;;;7.83;68.60;98715.66;2226759;80;21090;-79
2021/04/20 05:57:28;;;;;;;34.70;20.43;;;;;;;8.06;68.63;98719.15;2226732;80;21416;-79
2021/04/20 06:00:29;;;;;;;30.30;19.87;;;;;;;8.33;68.38;98714.90;2227174;80;21134;-80
2021/04/20 06:03:37;;;;;;;26.50;18.30;;;;;;;8.56;67.96;98717.10;2227049;80;21058;-80
2021/04/20 06:06:38;;;;;;;29.73;19.70;;;;;;;8.77;67.54;98715.33;2227425;80;21083;-80
2021/04/20 06:09:40;;;;;;;33.53;20.17;;;;;;;9.03;67.09;98714.88;2227959;79;21142;-81
2021/04/20 06:12:41;;;;;;;27.30;19.20;;;;;;;9.29;66.84;98715.27;2227393;80;21092;-79
2021/04/20 06:15:42;;;;;;;32.10;19.30;;;;;;;9.49;66.32;98707.31;2227065;80;21280;-79
2021/04/20 06:18:43;;;;;;;33.77;20.47;;;;;;;9.69;66.04;98711.52;2227347;80;21093;-80
2021/04/20 06:21:46;;;;;;;34.10;20.47;;;;;;;9.88;65.75;98713.51;2227299;80;21102;-79
2021/04/20 06:24:47;;;;;;;28.50;18.80;;;;;;;10.14;65.46;98720.34;2227084;79;21090;-80
2021/04/20 06:27:48;;;;;;;29.90;19.57;;;;;;;10.39;64.62;98714.99;2227299;80;21243;-80
2021/04/20 06:30:49;;;;;;;26.20;19.43;;;;;;;10.66;63.72;98716.60;2227737;80;21094;-79
2021/04/20 06:33:50;;;;;;;30.40;19.03;;;;;;;10.88;63.86;98712.45;2227171;80;21074;-79
2021/04/20 06:36:51;;;;;;;30.63;17.93;;;;;;;11.17;62.92;98711.37;2227211;80;21265;-78
2021/04/20 06:39:52;;;;;;;25.37;17.65;;;;;;;11.31;61.76;98715.41;2227125;80;21062;-80
2021/04/20 06:42:53;;;;;;;24.30;17.87;;;;;;;11.47;61.47;98710.30;2227139;80;21066;-79
2021/04/20 06:45:54;;;;;;;32.13;18.32;;;;;;;11.73;60.86;98709.56;2226504;80;21407;-79
2021/04/20 06:48:56;;;;;;;27.20;19.32;;;;;;;11.89;60.25;98711.42;2227499;80;21094;-82
2021/04/20 06:51:57;;;;;;;20.00;12.95;;;;;;;12.10;59.59;98715.42;2249630;79;21108;-79
2021/04/20 06:54:58;;;;;;;16.17;12.28;;;;;;;12.36;59.65;98715.54;2258942;79;21199;-80
2021/04/20 06:57:59;;;;;;;12.20;9.15;;;;;;;12.67;58.78;98716.91;2258273;79;21095;-79
2021/04/20 07:01:01;;;;;;;11.12;9.83;;;;;;;12.92;57.06;98711.25;2258112;78;21085;-80
2021/04/20 07:04:02;;;;;;;31.15;8.98;;;;;;;13.07;56.12;98707.36;2257433;79;21088;-79
2021/04/20 07:07:03;;;;;;;8.53;6.90;;;;;;;13.16;55.44;98708.66;2257527;79;21481;-79
2021/04/20 07:10:04;;;;;;;9.83;7.28;;;;;;;13.26;55.63;98709.12;2257828;79;21092;-82
2021/04/20 07:13:05;;;;;;;13.28;7.53;;;;;;;13.50;54.47;98711.27;2258405;79;21216;-79
2021/04/20 07:16:06;;;;;;;13.55;7.42;;;;;;;13.61;54.38;98703.81;2258800;79;21303;-77
2021/04/20 07:19:07;;;;;;;11.00;7.00;;;;;;;13.78;54.62;98706.83;2259078;79;21385;-80
2021/04/20 07:22:08;;;;;;;9.30;6.78;;;;;;;14.02;52.97;98708.95;2258903;79;21227;-80
2021/04/20 07:25:09;;;;;;;8.05;6.75;;;;;;;14.28;54.14;98705.34;2258871;79;21073;-80
2021/04/20 07:28:10;;;;;;;16.10;6.72;;;;;;;14.50;52.57;98701.73;2258764;79;21088;-78
2021/04/20 07:31:11;;;;;;;8.20;5.80;;;;;;;14.73;52.31;98698.09;2258638;79;21112;-80
2021/04/20 07:34:12;;;;;;;10.98;5.45;;;;;;;14.91;49.44;98699.30;2258536;79;21363;-79
2021/04/20 07:37:13;;;;;;;11.35;6.15;;;;;;;15.07;50.35;98694.34;2258904;79;21148;-80
2021/04/20 07:40:14;;;;;;;10.13;6.40;;;;;;;15.14;49.33;98693.84;2259102;79;21120;-80
2021/04/20 07:43:16;;;;;;;7.28;6.25;;;;;;;14.90;49.76;98700.18;2259238;79;21478;-79
2021/04/20 07:46:17;;;;;;;23.57;6.65;;;;;;;14.82;49.88;98691.05;2259157;78;21147;-79
2021/04/20 07:49:18;;;;;;;7.17;5.37;;;;;;;14.91;49.26;98684.40;2259113;79;21112;-80
2021/04/20 07:52:20;;;;;;;6.97;5.40;;;;;;;15.04;48.42;98688.24;2259143;79;21108;-81
2021/04/20 07:55:22;;;;;;;5.22;4.72;;;;;;;15.06;49.08;98681.21;2258858;79;21251;-79
2021/04/20 07:58:23;;;;;;;5.17;4.55;;;;;;;15.03;47.22;98679.92;2259623;78;21405;-79
2021/04/20 08:01:26;;;;;;;4.67;4.28;;;;;;;14.93;48.12;98683.08;2258970;79;21112;-79
2021/04/20 08:04:27;;;;;;;5.37;3.92;;;;;;;14.73;47.25;98679.70;2259108;78;21088;-80
2021/04/20 08:07:28;;;;;;;6.00;4.20;;;;;;;14.54;46.53;98678.95;2259311;78;21114;-79
2021/04/20 08:10:29;;;;;;;5.22;4.30;;;;;;;14.45;48.19;98688.20;2259785;79;21109;-79
2021/04/20 08:13:30;;;;;;;4.25;3.80;;;;;;;14.41;46.79;98684.69;2259248;78;21105;-78
2021/04/20 08:16:31;;;;;;;7.20;4.40;;;;;;;14.43;48.16;98677.71;2258502;79;21120;-80
2021/04/20 08:19:32;;;;;;;6.62;4.97;;;;;;;14.56;47.63;98681.13;2259050;79;21129;-79
2021/04/20 08:22:33;;;;;;;5.25;3.98;;;;;;;14.61;47.42;98685.91;2258930;79;21240;-80
2021/04/20 08:25:35;;;;;;;11.95;4.17;;;;;;;14.58;45.55;98680.68;2258680;79;21111;-79
2021/04/20 08:28:36;;;;;;;4.87;3.87;;;;;;;14.52;45.89;98678.97;2259120;79;21073;-81
2021/04/20 08:31:37;;;;;;;4.12;3.70;;;;;;;14.39;45.57;98683.83;2258781;79;21085;-80
2021/04/20 08:34:40;;;;;;;5.00;3.27;;;;;;;14.28;46.26;98679.08;2258678;79;21396;-78
2021/04/20 08:37:41;;;;;;;3.62;3.30;;;;;;;14.20;47.07;98680.88;2258454;79;21171;-79
2021/04/20 08:40:42;;;;;;;3.15;2.77;;;;;;;14.31;45.19;98673.38;2258671;79;21093;-81
2021/04/20 08:43:43;;;;;;;5.40;3.70;;;;;;;14.31;43.89;98676.00;2259883;79;21093;-79
2021/04/20 08:46:47;;;;;;;6.78;3.83;;;;;;;14.62;44.17;98672.77;2259043;79;21104;-80
2021/04/20 08:49:48;;;;;;;3.20;2.90;;;;;;;14.83;43.31;98679.65;2259322;79;21417;-80
2021/04/20 08:52:49;;;;;;;8.93;3.70;;;;;;;14.66;41.88;98673.17;2258096;79;21124;-79
2021/04/20 08:55:52;;;;;;;4.40;3.00;;;;;;;14.56;42.09;98672.81;2258969;79;21156;-79
2021/04/20 08:58:53;;;;;;;4.70;2.70;;;;;;;15.05;41.83;98672.45;2258919;79;21379;-80
2021/04/20 09:01:55;;;;;;;4.35;3.30;;;;;;;15.55;38.50;98657.94;2258784;79;21082;-78
2021/04/20 09:04:56;;;;;;;6.00;3.92;;;;;;;16.01;39.77;98661.39;2259054;79;21105;-81
2021/04/20 09:07:57;;;;;;;6.22;3.30;;;;;;;16.09;38.81;98670.06;2259604;78;21136;-81
2021/04/20 09:11:00;;;;;;;10.93;4.58;;;;;;;15.90;39.38;98668.98;2258680;79;21112;-80
2021/04/20 09:14:01;;;;;;;5.15;4.08;;;;;;;15.78;39.57;98673.52;2258469;79;21080;-80
2021/04/20 09:17:02;;;;;;;4.05;3.40;;;;;;;15.99;39.92;98668.00;2258274;79;21105;-80
2021/04/20 09:20:03;;;;;;;5.37;4.22;;;;;;;16.00;39.91;98666.23;2258766;79;21061;-80
2021/04/20 09:23:05;;;;;;;22.13;4.92;;;;;;;15.88;39.84;98672.08;2257912;79;21061;-81
2021/04/20 09:26:06;;;;;;;14.43;3.77;;;;;;;15.85;40.77;98661.59;2258414;79;21094;-79
2021/04/20 09:29:07;;;;;;;72.67;7.67;;;;;;;16.00;39.80;98662.28;2258368;79;21407;-80
2021/04/20 09:32:08;;;;;;;3.95;3.08;;;;;;;15.99;39.23;98664.49;2258782;79;21093;-81
2021/04/20 09:35:09;;;;;;;3.85;3.20;;;;;;;15.99;36.14;98663.17;2258789;79;21323;-80
2021/04/20 09:38:10;;;;;;;3.50;3.17;;;;;;;16.02;37.29;98660.06;2258595;78;21085;-81
2021/04/20 09:41:11;;;;;;;169.07;13.78;;;;;;;16.23;37.57;98657.14;2258683;79;21089;-79
2021/04/20 09:44:12;;;;;;;11.70;3.50;;;;;;;16.21;36.09;98659.37;2258289;79;21096;-79
2021/04/20 09:47:14;;;;;;;5.55;2.87;;;;;;;16.34;36.01;98654.80;2258564;78;21141;-80
2021/04/20 09:50:15;;;;;;;4.25;2.90;;;;;;;16.40;36.37;98654.27;2258549;79;21084;-79
2021/04/20 09:53:17;;;;;;;7.00;3.25;;;;;;;16.59;37.39;98655.34;2230852;78;21272;-79
2021/04/20 09:56:18;;;;;;;3.10;2.87;;;;;;;16.72;37.08;98647.70;2226669;80;21133;-80
2021/04/20 09:59:19;;;;;;;3.15;2.92;;;;;;;16.99;36.79;98645.05;2226674;79;21110;-79
2021/04/20 10:02:20;;;;;;;3.50;3.20;;;;;;;17.55;36.19;98643.19;2227165;80;21197;-79
2021/04/20 10:05:21;;;;;;;6.08;4.58;;;;;;;17.90;35.32;98642.06;2226788;80;21108;-78
2021/04/20 10:08:22;;;;;;;6.35;4.15;;;;;;;18.01;35.12;98632.59;2226520;80;21443;-79
2021/04/20 10:11:23;;;;;;;4.15;3.10;;;;;;;18.17;35.26;98637.97;2226937;80;21102;-78
2021/04/20 10:14:24;;;;;;;5.45;3.60;;;;;;;18.29;33.69;98638.17;2227423;80;21217;-79
2021/04/20 10:17:26;;;;;;;12.90;4.25;;;;;;;18.31;34.38;98633.27;2226820;79;21133;-79
2021/04/20 10:20:29;;;;;;;3.77;3.30;;;;;;;18.00;34.78;98631.72;2226722;80;21201;-79
2021/04/20 10:23:30;;;;;;;15.63;3.77;;;;;;;17.47;34.76;98630.14;2227016;80;21078;-81
2021/04/20 10:26:31;;;;;;;5.83;3.85;;;;;;;17.03;35.31;98637.07;2227402;79;21101;-80
2021/04/20 10:29:33;;;;;;;5.15;3.45;;;;;;;16.60;35.45;98642.59;2226858;80;21063;-79
2021/04/20 10:32:34;;;;;;;4.15;3.67;;;;;;;16.37;36.50;98633.69;2226326;79;21085;-79
2021/04/20 10:35:37;;;;;;;3.70;3.40;;;;;;;16.38;36.65;98631.47;2226722;80;21160;-78
2021/04/20 10:38:38;;;;;;;3.70;3.15;;;;;;;16.33;36.75;98628.91;2226825;80;21216;-79
2021/04/20 10:41:39;;;;;;;6.60;2.98;;;;;;;16.26;36.99;98628.57;2227244;80;21110;-80
2021/04/20 10:44:40;;;;;;;10.65;4.55;;;;;;;16.49;37.11;98622.55;2226774;80;21439;-77
2021/04/20 10:47:41;;;;;;;5.17;3.17;;;;;;;16.89;36.57;98623.25;2226950;79;21118;-81
2021/04/20 10:50:42;;;;;;;17.45;4.47;;;;;;;17.33;34.08;98615.86;2226910;80;21090;-79
2021/04/20 10:53:43;;;;;;;3.52;3.22;;;;;;;17.18;34.73;98624.92;2256228;79;21129;-80
2021/04/20 10:56:44;;;;;;;6.42;3.50;;;;;;;16.96;33.34;98617.42;2258297;79;21451;-79
2021/04/20 10:59:50;;;;;;;5.33;3.00;;;;;;;16.83;34.10;98611.49;2258414;79;21132;-80
2021/04/20 11:02:48;;;;;;;3.40;3.10;;;;;;;16.73;34.31;98611.23;2258105;79;21109;-80
2021/04/20 11:05:50;;;;;;;9.08;4.03;;;;;;;16.73;34.94;98609.91;2258274;79;21127;-79
2021/04/20 11:08:51;;;;;;;3.72;3.30;;;;;;;16.72;34.65;98602.45;2258401;78;21097;-82
2021/04/20 11:11:55;;;;;;;3.83;3.20;;;;;;;16.72;34.55;98602.45;2259276;78;21097;-80
2021/04/20 11:14:56;;;;;;;6.08;3.80;;;;;;;16.71;35.45;98599.39;2258812;79;21169;-78
2021/04/20 11:17:57;;;;;;;4.03;3.62;;;;;;;16.92;34.65;98600.79;2257837;79;21253;-78
2021/04/20 11:20:58;;;;;;;13.40;3.60;;;;;;;17.14;34.01;98590.73;2258418;78;21101;-77
2021/04/20 11:23:59;;;;;;;4.40;3.15;;;;;;;17.74;37.89;98582.56;2257957;79;21070;-77
2021/04/20 11:27:00;;;;;;;3.55;3.25;;;;;;;19.42;35.35;98574.10;2258032;79;21351;-80
2021/04/20 11:30:01;;;;;;;8.53;3.42;;;;;;;20.18;27.78;98581.18;2258193;79;21113;-78
2021/04/20 11:33:03;;;;;;;6.37;4.78;;;;;;;19.75;30.15;98582.03;2258265;79;21112;-79
2021/04/20 11:36:04;;;;;;;3.00;2.75;;;;;;;19.54;28.52;98575.57;2258319;79;21407;-78
2021/04/20 11:39:05;;;;;;;3.10;2.80;;;;;;;18.89;28.00;98572.42;2258091;79;21124;-79
2021/04/20 11:42:06;;;;;;;3.42;2.95;;;;;;;19.20;29.59;98564.57;2258619;79;21084;-79
2021/04/20 11:45:07;;;;;;;16.67;3.85;;;;;;;21.11;29.31;98553.41;2258420;79;21084;-78
2021/04/20 11:48:10;;;;;;;3.65;2.75;;;;;;;22.33;26.75;98553.73;2258296;79;21137;-80
2021/04/20 11:51:11;;;;;;;5.30;2.90;;;;;;;23.05;26.59;98558.32;2258126;79;21092;-78
2021/04/20 11:54:12;;;;;;;6.87;2.92;;;;;;;23.43;25.23;98555.34;2226274;80;21288;-77
2021/04/20 11:57:15;;;;;;;3.10;2.80;;;;;;;23.84;25.48;98549.95;2226787;80;21173;-79
2021/04/20 12:00:17;;;;;;;3.52;3.00;;;;;;;23.16;24.22;98556.52;2227401;79;21086;-79
2021/04/20 12:03:18;;;;;;;3.27;2.95;;;;;;;21.57;26.67;98546.88;2226889;80;21109;-78
2021/04/20 12:06:22;;;;;;;12.03;5.45;;;;;;;21.78;26.44;98553.20;2227052;80;21220;-78
2021/04/20 12:09:25;;;;;;;4.80;3.40;;;;;;;20.98;25.51;98553.84;2226783;79;21377;-78
2021/04/20 12:12:27;;;;;;;6.70;3.02;;;;;;;19.50;27.63;98554.91;2226172;80;21710;-79
2021/04/20 12:15:29;;;;;;;6.60;5.85;;;;;;;18.72;29.21;98549.05;2225978;79;21165;-77
2021/04/20 12:18:33;;;;;;;8.70;3.42;;;;;;;18.48;29.80;98546.13;2226240;80;21150;-80
2021/04/20 12:21:36;;;;;;;;;;;;;;;19.01;29.89;98544.32;2228944;80;21110;-77
2021/04/20 12:24:37;;;;;;;3.45;3.05;;;;;;;19.83;27.34;98543.81;2226201;80;20130;-77
2021/04/20 12:27:38;;;;;;;5.33;3.47;;;;;;;19.94;27.54;98536.86;2226382;80;21113;-79
2021/04/20 12:30:39;;;;;;;4.70;3.00;;;;;;;20.94;28.84;98532.31;2225761;79;21356;-78
2021/04/20 12:33:40;;;;;;;5.47;3.27;;;;;;;21.04;28.55;98533.32;2225828;80;21232;-79
2021/04/20 12:36:41;;;;;;;3.30;2.95;;;;;;;21.20;28.39;98538.48;2225735;79;21633;-77
2021/04/20 12:39:42;;;;;;;2.77;2.58;;;;;;;21.74;27.24;98532.99;2226460;80;21130;-77
2021/04/20 12:42:44;;;;;;;4.47;3.02;;;;;;;21.53;27.30;98526.67;2226360;80;21077;-77
2021/04/20 12:45:45;;;;;;;13.50;9.63;;;;;;;21.25;27.57;98528.14;2226251;80;21086;-78
2021/04/20 12:48:46;;;;;;;52.95;11.53;;;;;;;20.85;27.17;98529.98;2226897;80;21126;-77
2021/04/20 12:51:49;;;;;;;76.42;31.62;;;;;;;20.58;28.99;98529.10;2230130;79;21542;-80
2021/04/20 12:54:50;;;;;;;29.90;19.73;;;;;;;20.84;28.76;98530.03;2259053;78;21195;-79
2021/04/20 12:57:51;;;;;;;17.42;13.78;;;;;;;20.15;27.66;98520.78;2258476;79;21128;-79
2021/04/20 13:00:52;;;;;;;5.35;4.53;;;;;;;19.41;28.83;98524.27;2258135;79;21089;-78
2021/04/20 13:03:53;;;;;;;4.33;3.12;;;;;;;19.21;27.98;98533.69;2258405;78;21117;-76
2021/04/20 13:06:54;;;;;;;23.07;8.48;;;;;;;18.83;28.59;98526.30;2258055;79;21065;-78
2021/04/20 13:09:55;;;;;;;3.60;3.30;;;;;;;18.44;30.02;98523.73;2257991;78;21121;-77
2021/04/20 13:12:56;;;;;;;13.65;3.72;;;;;;;18.21;30.15;98526.07;2257798;79;21108;-78
2021/04/20 13:15:57;;;;;;;3.25;2.95;;;;;;;18.10;30.29;98514.86;2257674;78;21140;-78
2021/04/20 13:18:58;;;;;;;126.45;11.80;;;;;;;18.10;29.99;98514.86;2257841;79;21133;-78
2021/04/20 13:21:59;;;;;;;4.12;3.72;;;;;;;18.14;30.45;98511.23;2258266;79;21473;-76
2021/04/20 13:25:00;;;;;;;4.05;3.02;;;;;;;18.28;30.10;98510.94;2257737;78;21089;-78
2021/04/20 13:28:02;;;;;;;3.00;2.80;;;;;;;18.32;29.66;98508.19;2257760;79;21105;-77
2021/04/20 13:31:03;;;;;;;3.12;2.83;;;;;;;18.36;29.13;98503.23;2257738;79;21385;-78
2021/04/20 13:34:04;;;;;;;4.65;3.47;;;;;;;18.42;29.43;98501.77;2257731;79;21108;-78
2021/04/20 13:37:06;;;;;;;3.33;3.02;;;;;;;18.64;29.77;98490.67;2257781;79;21255;-78
2021/04/20 13:40:07;;;;;;;3.92;3.17;;;;;;;19.02;28.60;98489.19;2258076;79;21116;-79
2021/04/20 13:43:10;;;;;;;4.03;3.05;;;;;;;19.08;29.17;98489.51;2257851;79;21112;-79
2021/04/20 13:46:11;;;;;;;2.90;2.70;;;;;;;18.71;29.44;98486.51;2257922;78;21374;-79
2021/04/20 13:49:12;;;;;;;3.90;2.95;;;;;;;18.35;29.83;98492.71;2257687;79;21156;-78
2021/04/20 13:52:13;;;;;;;5.62;3.62;;;;;;;18.30;30.19;98487.99;2257809;78;21141;-78
2021/04/20 13:55:15;;;;;;;12.20;3.08;;;;;;;18.28;29.99;98488.03;2258076;78;21113;-78
2021/04/20 13:58:16;;;;;;;4.90;3.10;;;;;;;18.23;29.71;98490.38;2257816;79;21116;-78
2021/04/20 14:01:17;;;;;;;3.95;3.20;;;;;;;18.13;28.86;98496.30;2257821;79;21109;-77
2021/04/20 14:04:18;;;;;;;3.55;3.25;;;;;;;17.93;29.92;98487.98;2257685;79;21148;-78